createdAt,value
2018-03-04T00:01:47.043Z,96113.55
2018-03-04T00:04:14.488Z,96120.63
2018-03-04T00:06:41.974Z,96127.40
2018-03-04T00:09:09.416Z,96141.26
2018-03-04T00:11:36.921Z,96139.89
2018-03-04T00:14:04.376Z,96141.02
2018-03-04T00:16:31.823Z,96133.48
2018-03-04T00:18:59.284Z,96140.70
2018-03-04T00:21:26.801Z,96138.82
2018-03-04T00:23:54.266Z,96139.27
2018-03-04T00:26:21.951Z,96141.94
2018-03-04T00:28:49.464Z,96143.15
2018-03-04T00:31:16.917Z,96147.95
2018-03-04T00:33:44.396Z,96143.55
2018-03-04T00:36:11.833Z,96145.81
2018-03-04T00:38:39.334Z,96159.47
2018-03-04T00:41:06.803Z,96158.67
2018-03-04T00:43:34.419Z,96160.28
2018-03-04T00:46:01.887Z,96159.16
2018-03-04T00:48:29.329Z,96158.76
2018-03-04T00:50:56.798Z,96155.41
2018-03-04T00:53:24.263Z,96152.47
2018-03-04T00:55:51.733Z,96155.32
2018-03-04T00:58:19.182Z,96153.85
2018-03-04T01:00:46.629Z,96150.53
2018-03-04T01:03:14.090Z,96149.05
2018-03-04T01:05:41.569Z,96148.02
2018-03-04T01:08:09.025Z,96151.92
2018-03-04T01:10:36.463Z,96158.69
2018-03-04T01:13:04.053Z,96153.75
2018-03-04T01:15:32.108Z,96153.70
2018-03-04T01:17:59.565Z,96160.67
2018-03-04T01:20:27.073Z,96161.94
2018-03-04T01:22:54.726Z,96163.66
2018-03-04T01:25:22.171Z,96168.20
2018-03-04T01:27:49.820Z,96172.55
2018-03-04T01:30:17.305Z,96166.53
2018-03-04T01:32:44.787Z,96165.20
2018-03-04T01:35:12.277Z,96169.75
2018-03-04T01:37:39.708Z,96164.79
2018-03-04T01:40:07.157Z,96172.52
2018-03-04T01:42:34.602Z,96174.78
2018-03-04T01:45:02.065Z,96163.10
2018-03-04T01:47:30.361Z,96163.93
2018-03-04T01:49:57.845Z,96162.95
2018-03-04T01:52:25.289Z,96162.32
2018-03-04T01:54:52.728Z,96163.55
2018-03-04T01:57:20.186Z,96158.57
2018-03-04T01:59:47.697Z,96166.94
2018-03-04T02:02:15.179Z,96166.89
2018-03-04T02:04:42.669Z,96162.44
2018-03-04T02:07:10.130Z,96157.64
2018-03-04T02:09:37.656Z,96148.97
2018-03-04T02:12:05.153Z,96145.42
2018-03-04T02:14:33.194Z,96135.74
2018-03-04T02:17:00.705Z,96130.89
2018-03-04T02:19:28.413Z,96136.33
2018-03-04T02:21:55.897Z,96144.69
2018-03-04T02:24:23.383Z,96137.26
2018-03-04T02:26:50.848Z,96145.13
2018-03-04T02:29:18.325Z,96136.56
2018-03-04T02:31:45.782Z,96136.97
2018-03-04T02:34:13.276Z,96149.23
2018-03-04T02:36:40.729Z,96149.72
2018-03-04T02:39:08.207Z,96139.73
2018-03-04T02:41:35.673Z,96152.69
2018-03-04T02:44:03.247Z,96152.05
2018-03-04T02:46:30.801Z,96158.67
2018-03-04T02:48:58.287Z,96151.20
2018-03-04T02:51:25.831Z,96145.33
2018-03-04T02:53:53.272Z,96147.55
2018-03-04T02:56:20.766Z,96145.57
2018-03-04T02:58:48.199Z,96136.17
2018-03-04T03:01:15.693Z,96147.84
2018-03-04T03:03:43.146Z,96143.59
2018-03-04T03:06:10.575Z,96140.03
2018-03-04T03:08:38.109Z,96142.75
2018-03-04T03:11:05.548Z,96136.58
2018-03-04T03:13:34.311Z,96142.61
2018-03-04T03:16:01.835Z,96132.42
2018-03-04T03:18:29.416Z,96128.16
2018-03-04T03:20:56.936Z,96128.66
2018-03-04T03:23:24.366Z,96130.59
2018-03-04T03:25:52.526Z,96127.58
2018-03-04T03:28:19.989Z,96127.53
2018-03-04T03:30:47.462Z,96128.90
2018-03-04T03:33:14.922Z,96135.55
2018-03-04T03:35:42.398Z,96133.44
2018-03-04T03:38:09.846Z,96132.55
2018-03-04T03:40:37.354Z,96129.48
2018-03-04T03:43:04.794Z,96125.93
2018-03-04T03:45:32.268Z,96122.73
2018-03-04T03:47:59.718Z,96115.58
2018-03-04T03:50:27.313Z,96109.02
2018-03-04T03:52:54.812Z,96100.92
2018-03-04T03:55:22.301Z,96099.87
2018-03-04T03:57:49.769Z,96104.57
2018-03-04T04:00:17.242Z,96108.92
2018-03-04T04:02:44.724Z,96120.67
2018-03-04T04:05:12.198Z,96123.98
2018-03-04T04:07:39.691Z,96121.88
2018-03-04T04:10:07.227Z,96121.36
2018-03-04T04:12:34.698Z,96115.77
2018-03-04T04:15:02.219Z,96124.21
2018-03-04T04:17:29.681Z,96121.65
2018-03-04T04:19:57.145Z,96121.67
2018-03-04T04:22:24.591Z,96119.13
2018-03-04T04:24:52.059Z,96115.21
2018-03-04T04:27:19.516Z,96109.54
2018-03-04T04:29:46.993Z,96111.52
2018-03-04T04:32:14.438Z,96108.06
2018-03-04T04:34:41.974Z,96104.64
2018-03-04T04:37:09.460Z,96103.00
2018-03-04T04:39:36.902Z,96105.40
2018-03-04T04:42:04.387Z,96108.80
2018-03-04T04:44:31.849Z,96103.26
2018-03-04T04:46:59.885Z,96110.52
2018-03-04T04:49:27.444Z,96103.22
2018-03-04T04:51:54.908Z,96103.55
2018-03-04T04:54:22.506Z,96097.78
2018-03-04T04:56:50.045Z,96094.55
2018-03-04T04:59:17.620Z,96102.14
2018-03-04T05:01:45.088Z,96097.50
2018-03-04T05:04:12.590Z,96096.74
2018-03-04T05:06:40.024Z,96089.98
2018-03-04T05:09:07.500Z,96087.31
2018-03-04T05:11:34.951Z,96091.92
2018-03-04T05:14:02.386Z,96096.93
2018-03-04T05:16:29.891Z,96098.50
2018-03-04T05:18:57.361Z,96102.42
2018-03-04T05:21:24.838Z,96096.38
2018-03-04T05:23:53.050Z,96104.92
2018-03-04T05:26:20.519Z,96093.52
2018-03-04T05:28:48.417Z,96089.03
2018-03-04T05:31:15.890Z,96098.49
2018-03-04T05:33:43.337Z,96098.32
2018-03-04T05:36:10.812Z,96102.92
2018-03-04T05:38:38.318Z,96102.78
2018-03-04T05:41:05.815Z,96108.27
2018-03-04T05:43:33.308Z,96113.05
2018-03-04T05:46:00.769Z,96113.20
2018-03-04T05:48:28.315Z,96107.08
2018-03-04T05:50:55.768Z,96101.80
2018-03-04T05:53:23.228Z,96110.28
2018-03-04T05:55:50.687Z,96108.84
2018-03-04T05:58:18.210Z,96103.20
2018-03-04T06:00:45.696Z,96096.59
2018-03-04T06:03:13.123Z,96101.19
2018-03-04T06:05:40.611Z,96103.28
2018-03-04T06:08:08.140Z,96102.25
2018-03-04T06:10:35.605Z,96104.48
2018-03-04T06:13:03.030Z,96101.66
2018-03-04T06:15:30.611Z,96100.69
2018-03-04T06:17:58.041Z,96104.79
2018-03-04T06:20:25.506Z,96104.93
2018-03-04T06:22:52.954Z,96102.17
2018-03-04T06:25:20.426Z,96103.60
2018-03-04T06:27:50.448Z,96107.61
2018-03-04T06:30:17.952Z,96108.09
2018-03-04T06:32:45.379Z,96103.63
2018-03-04T06:35:12.805Z,96095.23
2018-03-04T06:37:40.975Z,96100.23
2018-03-04T06:40:08.422Z,96107.42
2018-03-04T06:42:35.889Z,96097.50
2018-03-04T06:45:03.373Z,96103.44
2018-03-04T06:47:30.855Z,96100.92
2018-03-04T06:49:58.305Z,96098.66
2018-03-04T06:52:25.751Z,96098.22
2018-03-04T06:54:53.718Z,96087.06
2018-03-04T06:57:21.193Z,96096.78
2018-03-04T06:59:48.755Z,96109.92
2018-03-04T07:02:16.297Z,96101.17
2018-03-04T07:04:43.957Z,96094.04
2018-03-04T07:07:11.507Z,96095.72
2018-03-04T07:09:38.996Z,96093.41
2018-03-04T07:12:06.476Z,96084.03
2018-03-04T07:14:33.949Z,96086.95
2018-03-04T07:17:01.424Z,96074.39
2018-03-04T07:19:29.795Z,96067.72
2018-03-04T07:21:57.259Z,96073.03
2018-03-04T07:24:24.748Z,96070.19
2018-03-04T07:26:52.193Z,96072.07
2018-03-04T07:29:19.675Z,96069.97
2018-03-04T07:31:47.168Z,96079.88
2018-03-04T07:34:14.628Z,96080.47
2018-03-04T07:36:42.110Z,96080.88
2018-03-04T07:39:09.666Z,96088.52
2018-03-04T07:41:37.156Z,96080.17
2018-03-04T07:44:04.619Z,96075.23
2018-03-04T07:46:32.062Z,96074.09
2018-03-04T07:48:59.604Z,96077.13
2018-03-04T07:51:27.136Z,96076.02
2018-03-04T07:53:54.642Z,96070.75
2018-03-04T07:56:22.132Z,96070.34
2018-03-04T07:58:49.618Z,96061.25
2018-03-04T08:01:17.092Z,96054.27
2018-03-04T08:03:44.567Z,96050.68
2018-03-04T08:06:12.031Z,96045.82
2018-03-04T08:08:39.486Z,96046.73
2018-03-04T08:11:06.964Z,96046.58
2018-03-04T08:13:34.542Z,96043.69
2018-03-04T08:16:02.135Z,96044.73
2018-03-04T08:18:29.879Z,96042.58
2018-03-04T08:20:57.341Z,96033.83
2018-03-04T08:23:25.050Z,96042.77
2018-03-04T08:25:53.844Z,96034.19
2018-03-04T08:28:30.117Z,96038.29
2018-03-04T08:30:57.667Z,96042.40
2018-03-04T08:33:25.107Z,96036.34
2018-03-04T08:35:52.567Z,96033.01
2018-03-04T08:38:20.029Z,96027.55
2018-03-04T08:40:47.470Z,96017.56
2018-03-04T08:43:15.035Z,96024.77
2018-03-04T08:45:42.495Z,96027.43
2018-03-04T08:48:09.974Z,96032.39
2018-03-04T08:50:37.575Z,96026.42
2018-03-04T08:53:05.098Z,96025.89
2018-03-04T08:55:32.545Z,96028.74
2018-03-04T08:57:59.995Z,96034.34
2018-03-04T09:00:27.468Z,96033.64
2018-03-04T09:02:55.221Z,96040.15
2018-03-04T09:05:22.962Z,96042.61
2018-03-04T09:07:51.228Z,96036.82
2018-03-04T09:10:18.843Z,96038.67
2018-03-04T09:12:46.904Z,96030.89
2018-03-04T09:15:14.372Z,96028.72
2018-03-04T09:17:41.852Z,96020.31
2018-03-04T09:20:09.340Z,96023.93
2018-03-04T09:22:37.104Z,96032.75
2018-03-04T09:25:04.625Z,96026.11
2018-03-04T09:27:32.061Z,96017.71
2018-03-04T09:29:59.583Z,96022.53
2018-03-04T09:32:27.311Z,96025.34
2018-03-04T09:34:54.776Z,96020.14
2018-03-04T09:37:22.290Z,96004.24
2018-03-04T09:39:49.734Z,95995.89
2018-03-04T09:42:17.218Z,95995.50
2018-03-04T09:44:44.665Z,95979.25
2018-03-04T09:47:12.177Z,95980.36
2018-03-04T09:49:39.622Z,95984.30
2018-03-04T09:52:07.061Z,95976.41
2018-03-04T09:54:34.569Z,95975.09
2018-03-04T09:57:02.044Z,95964.64
2018-03-04T09:59:29.702Z,95962.99
2018-03-04T10:01:57.266Z,95958.14
2018-03-04T10:04:24.815Z,95963.85
2018-03-04T10:06:52.288Z,95956.31
2018-03-04T10:09:19.737Z,95953.34
2018-03-04T10:11:47.224Z,95948.02
2018-03-04T10:14:14.686Z,95948.91
2018-03-04T10:16:42.153Z,95944.16
2018-03-04T10:19:09.605Z,95928.34
2018-03-04T10:21:37.068Z,95931.61
2018-03-04T10:24:04.530Z,95934.48
2018-03-04T10:26:32.009Z,95915.95
2018-03-04T10:28:59.458Z,95919.14
2018-03-04T10:31:26.926Z,95912.60
2018-03-04T10:33:54.373Z,95909.49
2018-03-04T10:36:21.799Z,95907.32
2018-03-04T10:38:49.275Z,95917.17
2018-03-04T10:41:16.807Z,95910.41
2018-03-04T10:43:44.295Z,95914.27
2018-03-04T10:46:11.737Z,95928.88
2018-03-04T10:48:39.200Z,95931.45
2018-03-04T10:51:06.663Z,95930.20
2018-03-04T10:53:34.101Z,95930.70
2018-03-04T10:56:01.554Z,95924.30
2018-03-04T10:58:28.996Z,95917.86
2018-03-04T11:00:57.448Z,95917.61
2018-03-04T11:03:25.018Z,95915.89
2018-03-04T11:05:52.605Z,95923.30
2018-03-04T11:08:20.285Z,95921.20
2018-03-04T11:10:47.809Z,95926.92
2018-03-04T11:13:15.370Z,95923.44
2018-03-04T11:15:42.965Z,95927.13
2018-03-04T11:18:10.572Z,95935.02
2018-03-04T11:20:38.137Z,95939.36
2018-03-04T11:23:05.607Z,95940.63
2018-03-04T11:25:33.082Z,95936.95
2018-03-04T11:28:00.578Z,95926.88
2018-03-04T11:30:28.202Z,95924.97
2018-03-04T11:32:55.686Z,95917.25
2018-03-04T11:35:23.136Z,95909.08
2018-03-04T11:37:50.590Z,95909.20
2018-03-04T11:40:18.058Z,95908.42
2018-03-04T11:42:45.527Z,95909.02
2018-03-04T11:45:12.985Z,95899.38
2018-03-04T11:47:40.494Z,95896.02
2018-03-04T11:50:07.972Z,95886.60
2018-03-04T11:52:35.476Z,95885.31
2018-03-04T11:55:03.068Z,95881.30
2018-03-04T11:57:30.503Z,95889.11
2018-03-04T11:59:58.060Z,95885.02
2018-03-04T12:02:25.573Z,95883.42
2018-03-04T12:04:53.007Z,95882.72
2018-03-04T12:07:20.640Z,95876.38
2018-03-04T12:09:48.128Z,95871.52
2018-03-04T12:12:15.568Z,95869.16
2018-03-04T12:14:43.135Z,95854.16
2018-03-04T12:17:10.488Z,95857.17
2018-03-04T12:19:38.571Z,95856.45
2018-03-04T12:22:06.017Z,95843.44
2018-03-04T12:24:33.571Z,95831.22
2018-03-04T12:27:01.057Z,95822.16
2018-03-04T12:29:28.549Z,95815.16
2018-03-04T12:31:56.020Z,95800.17
2018-03-04T12:34:23.459Z,95795.95
2018-03-04T12:36:50.923Z,95795.41
2018-03-04T12:39:18.366Z,95793.66
2018-03-04T12:41:45.839Z,95786.75
2018-03-04T12:44:13.278Z,95781.12
2018-03-04T12:46:40.877Z,95784.41
2018-03-04T12:49:08.369Z,95785.33
2018-03-04T12:51:35.817Z,95785.33
2018-03-04T12:54:03.894Z,95786.97
2018-03-04T12:56:31.318Z,95780.11
2018-03-04T12:58:58.804Z,95793.26
2018-03-04T13:01:26.263Z,95787.91
2018-03-04T13:03:53.754Z,95793.57
2018-03-04T13:06:21.195Z,95797.48
2018-03-04T13:08:48.662Z,95801.55
2018-03-04T13:11:16.087Z,95805.13
2018-03-04T13:13:43.537Z,95798.09
2018-03-04T13:16:10.996Z,95795.56
2018-03-04T13:18:38.736Z,95783.19
2018-03-04T13:21:06.198Z,95772.92
2018-03-04T13:23:33.679Z,95771.38
2018-03-04T13:26:02.150Z,95777.41
2018-03-04T13:28:29.622Z,95767.58
2018-03-04T13:30:57.122Z,95771.27
2018-03-04T13:33:24.599Z,95761.57
2018-03-04T13:35:52.044Z,95761.63
2018-03-04T13:38:19.842Z,95755.12
2018-03-04T13:40:47.596Z,95745.24
2018-03-04T13:43:15.465Z,95748.00
2018-03-04T13:45:43.310Z,95750.08
2018-03-04T13:48:10.824Z,95742.28
2018-03-04T13:50:38.268Z,95736.93
2018-03-04T13:53:06.292Z,95745.11
2018-03-04T13:55:33.717Z,95750.72
2018-03-04T13:58:01.183Z,95747.63
2018-03-04T14:00:28.676Z,95750.73
2018-03-04T14:02:56.966Z,95757.02
2018-03-04T14:05:24.435Z,95749.58
2018-03-04T14:07:51.923Z,95746.23
2018-03-04T14:10:19.405Z,95742.22
2018-03-04T14:12:46.854Z,95728.50
2018-03-04T14:15:14.349Z,95733.70
2018-03-04T14:17:41.805Z,95729.23
2018-03-04T14:20:09.261Z,95730.36
2018-03-04T14:22:36.678Z,95730.02
2018-03-04T14:25:04.160Z,95722.10
2018-03-04T14:27:31.744Z,95722.19
2018-03-04T14:29:59.187Z,95725.27
2018-03-04T14:32:26.660Z,95733.28
2018-03-04T14:34:54.405Z,95742.39
2018-03-04T14:37:21.932Z,95735.98
2018-03-04T14:39:49.351Z,95737.46
2018-03-04T14:42:16.945Z,95743.15
2018-03-04T14:44:44.413Z,95737.27
2018-03-04T14:47:11.863Z,95741.98
2018-03-04T14:49:39.476Z,95742.48
2018-03-04T14:52:07.024Z,95727.71
2018-03-04T14:54:34.573Z,95718.54
2018-03-04T14:57:02.065Z,95719.98
2018-03-04T14:59:29.603Z,95722.67
2018-03-04T15:01:57.869Z,95723.20
2018-03-04T15:04:25.327Z,95717.05
2018-03-04T15:06:52.815Z,95714.20
2018-03-04T15:09:21.217Z,95710.13
2018-03-04T15:11:48.742Z,95695.66
2018-03-04T15:14:16.264Z,95695.82
2018-03-04T15:16:43.768Z,95690.56
2018-03-04T15:19:11.308Z,95694.45
2018-03-04T15:21:38.769Z,95704.09
2018-03-04T15:24:06.183Z,95700.63
2018-03-04T15:26:33.637Z,95709.33
2018-03-04T15:29:01.137Z,95710.48
2018-03-04T15:31:28.638Z,95716.50
2018-03-04T15:33:56.084Z,95714.16
2018-03-04T15:36:23.624Z,95717.38
2018-03-04T15:38:51.174Z,95722.80
2018-03-04T15:41:18.775Z,95725.86
2018-03-04T15:43:46.345Z,95727.84
2018-03-04T15:46:13.817Z,95727.25
2018-03-04T15:48:41.262Z,95727.61
2018-03-04T15:51:08.694Z,95721.24
2018-03-04T15:53:36.181Z,95712.63
2018-03-04T15:56:03.616Z,95723.88
2018-03-04T15:58:31.093Z,95740.19
2018-03-04T16:00:58.545Z,95740.73
2018-03-04T16:03:26.031Z,95729.86
2018-03-04T16:05:53.496Z,95724.22
2018-03-04T16:08:21.023Z,95724.80
2018-03-04T16:10:48.609Z,95722.77
2018-03-04T16:13:16.188Z,95712.23
2018-03-04T16:15:43.663Z,95709.24
2018-03-04T16:18:11.109Z,95699.99
2018-03-04T16:20:38.571Z,95692.30
2018-03-04T16:23:06.042Z,95695.49
2018-03-04T16:25:33.495Z,95699.99
2018-03-04T16:28:00.950Z,95699.81
2018-03-04T16:30:28.431Z,95693.19
2018-03-04T16:32:55.854Z,95698.42
2018-03-04T16:35:27.501Z,95708.20
2018-03-04T16:37:55.034Z,95702.15
2018-03-04T16:40:22.593Z,95701.16
2018-03-04T16:42:50.078Z,95694.98
2018-03-04T16:45:17.566Z,95697.76
2018-03-04T16:47:45.031Z,95695.98
2018-03-04T16:50:12.531Z,95682.54
2018-03-04T16:52:39.969Z,95688.15
2018-03-04T16:55:07.463Z,95688.98
2018-03-04T16:57:34.919Z,95682.84
2018-03-04T17:00:02.456Z,95680.11
2018-03-04T17:02:30.009Z,95684.80
2018-03-04T17:04:57.587Z,95682.05
2018-03-04T17:07:25.057Z,95681.30
2018-03-04T17:09:52.526Z,95679.45
2018-03-04T17:12:20.004Z,95681.39
2018-03-04T17:14:47.459Z,95674.66
2018-03-04T17:17:14.940Z,95675.78
2018-03-04T17:19:42.461Z,95678.13
2018-03-04T17:22:09.967Z,95695.00
2018-03-04T17:24:37.732Z,95686.92
2018-03-04T17:27:05.183Z,95681.84
2018-03-04T17:29:32.825Z,95683.86
2018-03-04T17:32:00.283Z,95686.45
2018-03-04T17:34:27.748Z,95670.31
2018-03-04T17:36:55.212Z,95674.97
2018-03-04T17:39:22.696Z,95677.53
2018-03-04T17:41:50.161Z,95666.92
2018-03-04T17:44:17.608Z,95668.97
2018-03-04T17:46:45.091Z,95664.67
2018-03-04T17:49:12.571Z,95657.14
2018-03-04T17:51:40.186Z,95656.53
2018-03-04T17:54:07.766Z,95663.09
2018-03-04T17:56:35.353Z,95659.08
2018-03-04T17:59:02.807Z,95666.13
2018-03-04T18:01:30.321Z,95678.61
2018-03-04T18:03:57.794Z,95680.60
2018-03-04T18:06:25.244Z,95688.55
2018-03-04T18:08:52.737Z,95692.88
2018-03-04T18:11:20.171Z,95687.09
2018-03-04T18:13:48.194Z,95674.61
2018-03-04T18:16:15.639Z,95678.61
2018-03-04T18:18:43.787Z,95673.66
2018-03-04T18:21:14.826Z,95666.24
2018-03-04T18:23:42.295Z,95670.84
2018-03-04T18:26:09.757Z,95661.88
2018-03-04T18:28:37.299Z,95659.58
2018-03-04T18:31:04.888Z,95665.28
2018-03-04T18:33:32.324Z,95666.13
2018-03-04T18:35:59.816Z,95668.03
2018-03-04T18:38:27.298Z,95662.81
2018-03-04T18:40:54.874Z,95670.36
2018-03-04T18:43:22.407Z,95668.84
2018-03-04T18:45:50.126Z,95671.77
2018-03-04T18:48:17.571Z,95665.94
2018-03-04T18:50:45.176Z,95676.39
2018-03-04T18:53:12.809Z,95669.67
2018-03-04T18:55:40.357Z,95671.91
2018-03-04T18:58:07.820Z,95680.59
2018-03-04T19:00:35.305Z,95684.31
2018-03-04T19:03:03.401Z,95689.39
2018-03-04T19:05:30.888Z,95694.02
2018-03-04T19:07:58.472Z,95694.03
2018-03-04T19:10:25.937Z,95695.17
2018-03-04T19:12:53.462Z,95705.09
2018-03-04T19:15:20.960Z,95693.02
2018-03-04T19:17:48.416Z,95695.53
2018-03-04T19:20:15.922Z,95689.41
2018-03-04T19:22:43.395Z,95691.58
2018-03-04T19:25:10.848Z,95691.19
2018-03-04T19:27:38.322Z,95691.83
2018-03-04T19:30:05.943Z,95686.66
2018-03-04T19:32:33.491Z,95705.41
2018-03-04T19:35:00.945Z,95718.34
2018-03-04T19:37:28.427Z,95713.96
2018-03-04T19:39:55.970Z,95732.08
2018-03-04T19:42:24.371Z,95728.25
2018-03-04T19:44:51.839Z,95727.63
2018-03-04T19:47:19.377Z,95739.22
2018-03-04T19:49:46.879Z,95745.33
2018-03-04T19:52:14.365Z,95745.22
2018-03-04T19:54:41.840Z,95743.58
2018-03-04T19:57:09.283Z,95741.45
2018-03-04T19:59:36.787Z,95744.43
2018-03-04T20:02:04.270Z,95752.52
2018-03-04T20:04:31.738Z,95749.33
2018-03-04T20:06:59.232Z,95711.89
2018-03-04T20:09:26.717Z,95723.16
2018-03-04T20:11:54.183Z,95733.80
2018-03-04T20:14:21.689Z,95716.44
2018-03-04T20:16:49.160Z,95709.99
2018-03-04T20:19:16.646Z,95737.73
2018-03-04T20:21:44.164Z,95750.01
2018-03-04T20:24:11.622Z,95750.30
2018-03-04T20:26:39.293Z,95746.30
2018-03-04T20:29:06.812Z,95743.45
2018-03-04T20:31:34.303Z,95765.44
2018-03-04T20:34:01.908Z,95753.62
2018-03-04T20:36:29.401Z,95758.69
2018-03-04T20:38:56.860Z,95769.05
2018-03-04T20:41:24.810Z,95777.03
2018-03-04T20:43:52.358Z,95786.61
2018-03-04T20:46:20.046Z,95795.95
2018-03-04T20:48:47.617Z,95798.38
2018-03-04T20:51:15.607Z,95793.59
2018-03-04T20:53:43.134Z,95805.87
2018-03-04T20:56:10.583Z,95801.45
2018-03-04T20:58:38.273Z,95803.92
2018-03-04T21:01:05.724Z,95811.03
2018-03-04T21:03:34.087Z,95809.98
2018-03-04T21:06:01.614Z,95810.48
2018-03-04T21:08:29.314Z,95817.27
2018-03-04T21:10:56.830Z,95823.94
2018-03-04T21:13:24.387Z,95819.91
2018-03-04T21:15:51.838Z,95821.80
2018-03-04T21:18:19.443Z,95824.42
2018-03-04T21:20:46.941Z,95830.69
2018-03-04T21:23:14.383Z,95828.00
2018-03-04T21:25:41.842Z,95828.82
2018-03-04T21:28:09.309Z,95820.55
2018-03-04T21:30:36.811Z,95809.96
2018-03-04T21:33:04.260Z,95818.66
2018-03-04T21:35:31.790Z,95814.24
2018-03-04T21:37:59.227Z,95809.30
2018-03-04T21:40:27.085Z,95816.20
2018-03-04T21:42:54.676Z,95822.88
2018-03-04T21:45:23.531Z,95819.84
2018-03-04T21:47:51.027Z,95828.83
2018-03-04T21:50:19.194Z,95841.97
2018-03-04T21:52:47.153Z,95839.13
2018-03-04T21:55:14.686Z,95832.29
2018-03-04T21:57:42.152Z,95833.47
2018-03-04T22:00:09.863Z,95835.92
2018-03-04T22:02:37.484Z,95842.56
2018-03-04T22:05:05.267Z,95843.33
2018-03-04T22:07:33.133Z,95858.40
2018-03-04T22:10:01.007Z,95861.66
2018-03-04T22:12:28.575Z,95869.55
2018-03-04T22:14:56.243Z,95875.34
2018-03-04T22:17:23.721Z,95879.77
2018-03-04T22:19:51.278Z,95878.48
2018-03-04T22:22:19.864Z,95879.38
2018-03-04T22:24:49.629Z,95881.41
2018-03-04T22:27:25.189Z,95882.32
2018-03-04T22:29:52.738Z,95882.34
2018-03-04T22:32:27.228Z,95881.27
2018-03-04T22:34:56.333Z,95885.03
2018-03-04T22:37:24.398Z,95894.47
2018-03-04T22:39:51.912Z,95890.90
2018-03-04T22:42:20.508Z,95898.53
2018-03-04T22:44:48.437Z,95897.20
2018-03-04T22:47:15.990Z,95905.99
2018-03-04T22:49:43.451Z,95905.60
2018-03-04T22:52:15.820Z,95911.22
2018-03-04T22:54:44.197Z,95912.62
2018-03-04T22:59:55.401Z,95916.76
2018-03-04T23:02:22.851Z,95917.55
2018-03-04T23:04:50.316Z,95931.31
2018-03-04T23:07:17.781Z,95943.96
2018-03-04T23:09:45.258Z,95954.15
2018-03-04T23:12:12.734Z,95948.25
2018-03-04T23:14:40.211Z,95952.75
2018-03-04T23:17:07.663Z,95949.89
2018-03-04T23:19:35.141Z,95951.90
2018-03-04T23:22:02.617Z,95947.61
2018-03-04T23:24:30.061Z,95952.40
2018-03-04T23:26:57.525Z,95963.45
2018-03-04T23:29:24.968Z,95957.55
2018-03-04T23:31:52.440Z,95952.73
2018-03-04T23:34:19.966Z,95961.37
2018-03-04T23:36:47.422Z,95964.86
2018-03-04T23:39:15.630Z,95972.50
2018-03-04T23:41:43.117Z,95974.72
2018-03-04T23:44:10.693Z,95981.08
2018-03-04T23:46:38.215Z,95975.41
2018-03-04T23:49:05.741Z,95981.41
2018-03-04T23:51:33.203Z,95990.69
2018-03-04T23:54:00.660Z,95989.55
2018-03-04T23:56:28.126Z,95990.61
2018-03-04T23:58:55.625Z,95987.96
